Time;durP1;ratioP1;P1;durP2;ratioP2;P2;SDS_P1;SDS_P2;PMS_P1;PMS_P2;Temp;Humidity;BMP_temperature;BMP_pressure;BME280_temperature;BME280_humidity;BME280_pressure;Samples;Min_cycle;Max_cycle;Signal;HPM_P1;HPM_P2
2022/04/25 00:00:44;;;;;;;29.98;14.75;;;7.20;99.90;;;;;;5082983;28;20040;-81
2022/04/25 00:03:10;;;;;;;25.95;13.35;;;7.30;99.90;;;;;;5077483;28;20036;-80
2022/04/25 00:05:36;;;;;;;31.30;14.35;;;7.30;99.90;;;;;;5077408;28;20054;-80
2022/04/25 00:08:01;;;;;;;27.42;13.30;;;7.30;99.90;;;;;;5077449;28;20090;-81
2022/04/25 00:10:27;;;;;;;23.10;12.90;;;7.30;99.90;;;;;;5077124;28;20036;-81
2022/04/25 00:12:52;;;;;;;19.92;11.93;;;7.30;99.90;;;;;;5059407;28;20048;-80
2022/04/25 00:15:18;;;;;;;24.08;13.75;;;8.30;99.90;;;;;;5076911;28;20040;-80
2022/04/25 00:17:44;;;;;;;23.25;12.43;;;7.30;99.90;;;;;;5058799;28;20399;-81
2022/04/25 00:20:10;;;;;;;23.38;13.02;;;7.30;99.90;;;;;;5076987;28;20040;-81
2022/04/25 00:22:36;;;;;;;26.85;12.93;;;7.30;99.90;;;;;;5059428;28;20141;-81
2022/04/25 00:25:04;;;;;;;29.55;12.30;;;7.40;99.90;;;;;;5077161;28;20483;-80
2022/04/25 00:27:30;;;;;;;28.33;13.10;;;7.40;99.90;;;;;;5077152;28;20051;-80
2022/04/25 00:29:56;;;;;;;24.70;12.02;;;7.40;99.90;;;;;;5076950;28;20040;-80
2022/04/25 00:32:23;;;;;;;22.08;11.73;;;7.40;99.90;;;;;;5042518;28;20040;-81
2022/04/25 00:34:49;;;;;;;22.55;13.15;;;7.40;99.90;;;;;;5076595;28;20124;-80
2022/04/25 00:37:15;;;;;;;28.67;13.23;;;7.50;99.90;;;;;;5076710;28;20120;-82
2022/04/25 00:39:40;;;;;;;23.13;11.63;;;7.40;99.90;;;;;;5058849;28;20080;-81
2022/04/25 00:42:09;;;;;;;27.63;12.95;;;7.40;99.90;;;;;;5076184;28;20115;-80
2022/04/25 00:44:34;;;;;;;23.63;14.18;;;7.30;99.90;;;;;;5076279;28;20059;-81
2022/04/25 00:47:00;;;;;;;32.17;13.52;;;7.20;99.90;;;;;;5076505;28;20033;-81
2022/04/25 00:49:26;;;;;;;23.75;14.52;;;7.20;99.90;;;;;;5076641;28;20041;-81
2022/04/25 00:51:52;;;;;;;21.45;11.93;;;7.20;99.90;;;;;;5075939;28;20090;-81
2022/04/25 00:54:21;;;;;;;23.80;13.50;;;7.10;99.90;;;;;;5075738;28;20041;-81
2022/04/25 00:56:48;;;;;;;25.98;12.45;;;7.10;99.90;;;;;;5057561;28;20415;-81
2022/04/25 00:59:19;;;;;;;26.50;14.73;;;7.10;99.90;;;;;;5076567;28;20076;-81
2022/04/25 01:01:45;;;;;;;32.50;14.43;;;7.00;99.90;;;;;;5059285;28;20041;-82
2022/04/25 01:04:12;;;;;;;28.50;13.77;;;7.00;99.90;;;;;;5077109;28;20036;-81
2022/04/25 01:06:38;;;;;;;29.08;14.40;;;6.90;99.90;;;;;;5077009;28;20040;-82
2022/04/25 01:09:04;;;;;;;23.73;13.38;;;6.90;99.90;;;;;;5077004;28;20100;-80
2022/04/25 01:11:30;;;;;;;27.30;13.57;;;6.10;99.90;;;;;;5075210;28;20056;-81
2022/04/25 01:13:56;;;;;;;30.70;16.05;;;6.80;99.90;;;;;;5075067;28;20045;-82
2022/04/25 01:16:21;;;;;;;31.90;15.32;;;6.80;99.90;;;;;;5075307;28;20044;-81
2022/04/25 01:18:47;;;;;;;33.10;15.52;;;6.70;99.90;;;;;;5075373;28;20058;-82
2022/04/25 01:21:14;;;;;;;26.27;14.68;;;6.60;99.90;;;;;;5075610;28;20486;-82
2022/04/25 01:29:09;;;;;;;25.52;13.18;;;6.50;99.90;;;;;;5076042;28;20088;-81
2022/04/25 01:31:35;;;;;;;21.40;12.70;;;6.40;99.90;;;;;;5058272;28;20116;-82
2022/04/25 01:34:01;;;;;;;23.60;12.93;;;6.40;99.90;;;;;;5058366;28;20395;-81
2022/04/25 01:36:27;;;;;;;22.92;12.88;;;6.30;99.90;;;;;;5075656;28;20044;-81
2022/04/25 01:38:53;;;;;;;26.10;14.82;;;6.30;99.90;;;;;;5057501;28;20045;-80
2022/04/25 01:41:19;;;;;;;33.45;15.90;;;6.40;99.90;;;;;;5057886;28;20446;-81
2022/04/25 01:43:45;;;;;;;28.13;13.23;;;6.40;99.90;;;;;;5076103;28;20048;-81
2022/04/25 01:46:14;;;;;;;20.70;11.35;;;6.40;99.90;;;;;;5076756;28;20461;-80
2022/04/25 01:48:39;;;;;;;26.83;13.43;;;6.50;99.90;;;;;;5057942;28;20083;-82
2022/04/25 01:51:05;;;;;;;22.80;12.13;;;6.60;99.90;;;;;;5057808;28;20483;-81
2022/04/25 01:53:31;;;;;;;25.15;13.45;;;6.60;99.90;;;;;;5041065;28;20475;-81
2022/04/25 01:55:56;;;;;;;21.15;12.68;;;6.70;99.90;;;;;;5055630;28;20047;-82
2022/04/25 01:58:22;;;;;;;24.92;11.43;;;6.80;99.90;;;;;;5074557;28;20049;-81
2022/04/25 02:00:47;;;;;;;20.23;11.48;;;6.90;99.90;;;;;;5074379;28;20040;-80
2022/04/25 02:03:13;;;;;;;20.85;11.45;;;7.10;99.90;;;;;;5074220;28;20128;-81
2022/04/25 02:05:39;;;;;;;23.48;12.48;;;7.10;99.90;;;;;;5075284;28;20051;-81
2022/04/25 02:08:05;;;;;;;21.90;12.32;;;7.20;99.90;;;;;;5057381;28;20040;-81
2022/04/25 02:10:31;;;;;;;26.42;11.07;;;7.20;99.90;;;;;;5039713;28;20479;-80
2022/04/25 02:12:57;;;;;;;21.90;10.27;;;7.20;99.90;;;;;;5074481;28;20043;-81
2022/04/25 02:15:23;;;;;;;20.73;10.70;;;7.40;99.90;;;;;;5074789;28;20045;-80
2022/04/25 02:17:49;;;;;;;19.38;10.43;;;7.20;99.90;;;;;;5056485;28;20048;-81
2022/04/25 02:20:14;;;;;;;22.17;10.60;;;7.20;99.90;;;;;;5073999;28;20043;-81
2022/04/25 02:22:40;;;;;;;22.70;11.75;;;7.20;99.90;;;;;;5056468;28;20504;-79
2022/04/25 02:25:09;;;;;;;22.73;11.65;;;7.20;99.90;;;;;;5074965;28;20037;-81
2022/04/25 02:27:35;;;;;;;22.52;11.85;;;7.20;99.90;;;;;;5075417;28;20038;-82
2022/04/25 02:30:02;;;;;;;25.27;10.63;;;7.20;99.90;;;;;;5076247;28;20029;-81
2022/04/25 02:32:28;;;;;;;20.90;10.68;;;7.30;99.90;;;;;;5075376;28;20037;-81
2022/04/25 02:34:57;;;;;;;19.95;10.20;;;7.30;99.90;;;;;;5075395;28;20045;-81
2022/04/25 02:37:23;;;;;;;22.08;10.45;;;7.30;99.90;;;;;;5075737;28;20044;-80
2022/04/25 02:39:50;;;;;;;23.52;11.32;;;7.30;99.90;;;;;;5075590;28;20097;-80
2022/04/25 02:42:15;;;;;;;21.10;10.30;;;7.30;99.90;;;;;;5075779;28;20097;-81
2022/04/25 02:44:44;;;;;;;17.27;8.75;;;7.20;99.90;;;;;;5076557;28;20076;-81
2022/04/25 02:47:13;;;;;;;20.30;11.25;;;7.20;99.90;;;;;;5076641;28;20041;-81
2022/04/25 02:49:38;;;;;;;18.75;10.45;;;7.20;99.90;;;;;;5044864;28;20048;-80
2022/04/25 02:52:04;;;;;;;20.40;10.80;;;7.10;99.90;;;;;;5045188;28;20045;-79
2022/04/25 02:54:30;;;;;;;21.08;10.93;;;7.10;99.90;;;;;;5062369;28;20049;-80
2022/04/25 02:56:55;;;;;;;17.65;9.90;;;7.20;99.90;;;;;;5080822;28;20079;-81
2022/04/25 02:59:21;;;;;;;18.83;9.90;;;7.10;99.90;;;;;;5061969;28;20045;-81
2022/04/25 03:01:47;;;;;;;24.33;11.07;;;7.10;99.90;;;;;;5079689;28;20550;-81
2022/04/25 03:04:12;;;;;;;19.65;10.18;;;7.10;99.90;;;;;;5057500;28;20040;-81
2022/04/25 03:06:38;;;;;;;21.65;9.73;;;7.10;99.90;;;;;;5074200;28;20139;-81
2022/04/25 03:09:04;;;;;;;17.77;9.60;;;7.10;99.90;;;;;;5039603;28;20045;-81
2022/04/25 03:11:29;;;;;;;17.60;10.18;;;7.10;99.90;;;;;;5077059;28;20047;-81
2022/04/25 03:13:55;;;;;;;29.35;11.15;;;7.10;99.90;;;;;;5074339;28;20449;-81
2022/04/25 03:16:21;;;;;;;24.00;11.30;;;7.10;99.90;;;;;;5074067;28;20032;-80
2022/04/25 03:18:48;;;;;;;23.90;12.43;;;7.00;99.90;;;;;;5055741;28;20040;-82
2022/04/25 03:21:13;;;;;;;19.50;11.77;;;7.00;99.90;;;;;;5039400;28;20106;-81
2022/04/25 03:23:39;;;;;;;18.33;11.05;;;7.10;99.90;;;;;;5077466;28;20490;-81
2022/04/25 03:26:05;;;;;;;22.27;12.05;;;7.00;99.90;;;;;;5077573;28;20045;-80
2022/04/25 03:28:31;;;;;;;21.55;11.65;;;7.00;99.90;;;;;;5077765;28;20076;-81
2022/04/25 03:30:57;;;;;;;21.85;10.15;;;7.00;99.90;;;;;;5059783;28;20114;-80
2022/04/25 03:33:24;;;;;;;17.85;9.80;;;7.00;99.90;;;;;;5077004;28;20033;-81
2022/04/25 03:35:50;;;;;;;17.27;10.00;;;7.00;99.90;;;;;;5059732;28;20037;-81
2022/04/25 03:38:18;;;;;;;21.20;10.40;;;7.10;99.90;;;;;;5077810;28;20071;-81
2022/04/25 03:40:44;;;;;;;19.63;10.65;;;7.10;99.90;;;;;;5059268;28;20099;-81
2022/04/25 03:43:10;;;;;;;16.27;10.13;;;7.10;99.90;;;;;;5076593;28;20041;-80
2022/04/25 03:45:37;;;;;;;29.35;11.05;;;7.10;99.90;;;;;;5077227;28;20051;-81
2022/04/25 03:48:03;;;;;;;17.52;10.98;;;7.00;99.90;;;;;;5076923;28;20049;-81
2022/04/25 03:50:31;;;;;;;20.20;10.70;;;7.00;99.90;;;;;;5077302;28;20048;-81
2022/04/25 03:52:57;;;;;;;18.63;10.57;;;7.00;99.90;;;;;;5077077;28;20052;-81
2022/04/25 03:58:07;;;;;;;19.73;11.23;;;7.00;99.90;;;;;;5077016;28;20129;-81
2022/04/25 04:00:33;;;;;;;18.98;10.23;;;7.00;99.90;;;;;;5058946;28;20554;-81
2022/04/25 04:02:59;;;;;;;26.25;11.57;;;7.00;99.90;;;;;;5076787;28;20097;-80
2022/04/25 04:05:26;;;;;;;22.95;11.85;;;7.00;99.90;;;;;;5059300;28;20044;-82
2022/04/25 04:07:52;;;;;;;15.23;9.98;;;6.90;99.90;;;;;;5059111;28;20123;-81
2022/04/25 04:10:19;;;;;;;18.90;11.80;;;6.90;99.90;;;;;;5077166;28;20067;-81
2022/04/25 04:12:46;;;;;;;18.23;10.73;;;6.90;99.90;;;;;;5077366;28;20496;-81
2022/04/25 04:15:13;;;;;;;19.85;9.88;;;6.90;99.90;;;;;;5077485;28;20044;-81
2022/04/25 04:17:39;;;;;;;22.05;10.75;;;7.00;99.90;;;;;;5059979;28;20047;-81
2022/04/25 04:20:06;;;;;;;20.58;11.40;;;6.90;99.90;;;;;;5077379;28;20044;-81
2022/04/25 04:22:32;;;;;;;19.67;11.48;;;6.90;99.90;;;;;;5076977;28;20078;-82
2022/04/25 04:25:06;;;;;;;26.08;10.68;;;7.00;99.90;;;;;;5077237;28;20063;-80
2022/04/25 04:27:32;;;;;;;18.42;9.90;;;7.00;99.90;;;;;;5076991;28;20036;-80
2022/04/25 04:30:00;;;;;;;16.50;8.40;;;7.00;99.90;;;;;;5077171;28;20144;-83
2022/04/25 04:32:29;;;;;;;18.45;9.65;;;8.00;99.90;;;;;;5076029;28;20044;-81
2022/04/25 04:34:54;;;;;;;15.50;9.13;;;7.10;99.90;;;;;;5076446;28;20055;-80
2022/04/25 04:37:20;;;;;;;15.07;8.55;;;7.10;99.90;;;;;;5059363;28;20044;-81
2022/04/25 04:39:46;;;;;;;15.65;8.38;;;7.10;99.90;;;;;;5076886;28;20477;-81
2022/04/25 04:42:11;;;;;;;16.08;9.25;;;7.10;99.90;;;;;;5059965;28;20036;-81
2022/04/25 04:44:37;;;;;;;16.15;10.02;;;7.20;99.90;;;;;;5058296;28;20483;-81
2022/04/25 04:47:03;;;;;;;15.43;8.73;;;7.10;99.90;;;;;;5041660;28;20051;-81
2022/04/25 04:49:29;;;;;;;13.88;8.13;;;7.20;99.90;;;;;;5076516;28;20071;-81
2022/04/25 04:51:54;;;;;;;15.10;8.25;;;7.20;99.90;;;;;;5076194;28;20066;-82
2022/04/25 04:54:20;;;;;;;18.52;9.60;;;7.20;99.90;;;;;;5058345;28;20044;-81
2022/04/25 04:56:46;;;;;;;18.15;8.77;;;8.10;99.90;;;;;;5075807;28;20477;-82
2022/04/25 04:59:12;;;;;;;16.10;9.32;;;7.20;99.90;;;;;;5076165;28;20052;-82
2022/04/25 05:01:38;;;;;;;18.92;9.55;;;7.30;99.90;;;;;;5058265;28;20123;-81
2022/04/25 05:04:04;;;;;;;17.45;9.40;;;7.30;99.90;;;;;;5075113;28;20049;-81
2022/04/25 05:06:30;;;;;;;13.88;8.15;;;7.30;99.90;;;;;;5057546;28;20090;-80
2022/04/25 05:08:56;;;;;;;14.68;9.07;;;7.30;99.90;;;;;;5057331;28;20459;-80
2022/04/25 05:11:23;;;;;;;16.95;8.45;;;7.30;99.90;;;;;;5056072;28;20406;-82
2022/04/25 05:13:48;;;;;;;24.52;9.50;;;7.30;99.90;;;;;;5073190;28;20047;-82
2022/04/25 05:16:14;;;;;;;16.35;9.85;;;7.30;99.90;;;;;;5072960;28;20036;-80
2022/04/25 05:18:39;;;;;;;17.10;9.77;;;7.30;99.90;;;;;;5072762;28;20056;-80
2022/04/25 05:21:05;;;;;;;14.77;8.10;;;7.30;99.90;;;;;;5055366;28;20352;-81
2022/04/25 05:23:31;;;;;;;13.57;8.77;;;7.30;99.90;;;;;;5072975;28;20043;-80
2022/04/25 05:25:58;;;;;;;18.42;8.45;;;8.20;99.90;;;;;;5072973;28;20044;-81
2022/04/25 05:28:28;;;;;;;15.30;8.35;;;8.20;99.90;;;;;;5055607;28;20056;-81
2022/04/25 05:30:54;;;;;;;14.77;9.07;;;7.30;99.90;;;;;;5072690;28;20049;-81
2022/04/25 05:33:19;;;;;;;17.23;9.52;;;7.30;99.90;;;;;;5055289;28;20032;-81
2022/04/25 05:35:46;;;;;;;14.65;9.50;;;7.20;99.90;;;;;;5075121;28;20033;-81
2022/04/25 05:38:14;;;;;;;13.63;8.68;;;7.30;99.90;;;;;;5074850;28;20072;-82
2022/04/25 05:40:41;;;;;;;24.30;9.05;;;7.30;99.90;;;;;;5057136;28;20036;-81
2022/04/25 05:43:08;;;;;;;16.60;9.35;;;7.30;99.90;;;;;;5057866;28;20044;-81
2022/04/25 05:45:34;;;;;;;15.07;8.45;;;7.30;99.90;;;;;;5074352;28;20055;-80
2022/04/25 05:48:00;;;;;;;16.13;8.32;;;7.30;99.90;;;;;;5079451;28;20063;-80
2022/04/25 05:53:13;;;;;;;16.77;8.00;;;7.40;99.90;;;;;;5081021;28;20048;-80
2022/04/25 05:55:41;;;;;;;20.58;8.02;;;7.40;99.90;;;;;;5080673;28;20109;-80
2022/04/25 05:58:07;;;;;;;18.42;7.75;;;8.30;99.90;;;;;;5080291;28;20490;-82
2022/04/25 06:00:34;;;;;;;17.33;7.95;;;7.60;99.90;;;;;;5079826;28;20041;-80
2022/04/25 06:03:01;;;;;;;13.45;8.18;;;7.70;99.90;;;;;;5075396;28;20086;-80
2022/04/25 06:05:27;;;;;;;21.42;8.77;;;7.70;99.90;;;;;;5073611;28;20049;-81
2022/04/25 06:07:53;;;;;;;20.92;8.90;;;7.70;99.90;;;;;;5073451;28;20459;-81
2022/04/25 06:10:20;;;;;;;12.45;8.15;;;7.80;99.90;;;;;;5073608;28;20033;-81
2022/04/25 06:12:52;;;;;;;14.85;7.68;;;7.90;99.90;;;;;;5073619;28;20155;-82
2022/04/25 06:15:20;;;;;;;12.93;7.05;;;7.90;99.90;;;;;;5073605;28;20051;-81
2022/04/25 06:17:46;;;;;;;14.57;7.70;;;7.90;99.90;;;;;;5073430;28;20048;-82
2022/04/25 06:20:14;;;;;;;15.02;8.48;;;8.00;99.90;;;;;;5073376;28;20051;-81
2022/04/25 06:22:50;;;;;;;14.20;8.63;;;8.00;99.90;;;;;;5072985;28;20119;-81
2022/04/25 06:25:16;;;;;;;16.63;8.13;;;8.10;99.90;;;;;;5073228;28;20068;-80
2022/04/25 06:27:45;;;;;;;21.67;8.65;;;8.10;99.90;;;;;;5073020;28;20045;-82
2022/04/25 06:30:11;;;;;;;14.13;8.48;;;8.10;99.90;;;;;;5073430;28;20091;-81
2022/04/25 06:32:37;;;;;;;24.58;7.85;;;8.10;99.90;;;;;;5073246;28;20122;-80
2022/04/25 06:35:02;;;;;;;13.48;7.65;;;8.00;99.90;;;;;;5073152;28;20041;-82
2022/04/25 06:37:28;;;;;;;15.93;6.90;;;8.00;99.90;;;;;;5073237;28;20127;-80
2022/04/25 06:39:54;;;;;;;13.30;7.47;;;8.00;99.90;;;;;;5073033;28;20132;-81
2022/04/25 06:42:20;;;;;;;14.85;7.57;;;8.00;99.90;;;;;;5073127;28;20049;-82
2022/04/25 06:44:46;;;;;;;15.70;7.55;;;8.00;99.90;;;;;;5072789;28;20506;-81
2022/04/25 06:47:14;;;;;;;17.17;8.20;;;8.00;99.90;;;;;;5073168;28;20076;-81
2022/04/25 06:49:40;;;;;;;13.75;8.13;;;8.00;99.90;;;;;;5072955;28;20051;-79
2022/04/25 06:52:08;;;;;;;15.98;7.88;;;7.90;99.90;;;;;;5072621;28;20044;-81
2022/04/25 06:54:35;;;;;;;13.23;7.40;;;7.80;99.90;;;;;;5072878;28;20371;-81
2022/04/25 06:57:01;;;;;;;12.20;7.32;;;7.70;99.90;;;;;;5074225;28;20072;-81
2022/04/25 06:59:27;;;;;;;18.17;8.50;;;7.70;99.90;;;;;;5059118;28;20451;-81
2022/04/25 07:01:53;;;;;;;15.20;8.85;;;7.70;99.90;;;;;;5059143;28;20091;-81
2022/04/25 07:04:19;;;;;;;13.52;8.30;;;7.60;99.90;;;;;;5059071;28;20045;-82
2022/04/25 07:06:45;;;;;;;17.30;9.40;;;7.60;99.90;;;;;;5058673;28;20052;-82
2022/04/25 07:09:14;;;;;;;18.88;8.38;;;7.70;99.90;;;;;;5076738;28;20045;-80
2022/04/25 07:11:45;;;;;;;14.73;8.15;;;7.60;99.90;;;;;;5059217;28;20041;-83
2022/04/25 07:14:15;;;;;;;17.58;8.75;;;7.70;99.90;;;;;;5076502;28;20044;-82
2022/04/25 07:16:45;;;;;;;14.43;7.82;;;7.70;99.90;;;;;;5076363;28;20045;-82
2022/04/25 07:19:11;;;;;;;20.92;8.75;;;7.70;99.90;;;;;;5076693;28;20158;-81
2022/04/25 07:29:53;;;;;;;16.30;7.97;;;7.60;99.90;;;;;;5073878;28;20505;-83
2022/04/25 07:32:20;;;;;;;19.10;8.70;;;7.70;99.90;;;;;;5073882;28;20116;-82
2022/04/25 07:34:51;;;;;;;15.35;8.77;;;7.70;99.90;;;;;;5074146;28;20402;-81
2022/04/25 07:37:19;;;;;;;19.10;9.48;;;7.70;99.90;;;;;;5074092;28;20044;-82
2022/04/25 07:39:45;;;;;;;20.50;9.60;;;7.70;99.90;;;;;;5074368;28;20046;-81
2022/04/25 07:42:11;;;;;;;17.33;10.10;;;7.70;99.90;;;;;;5074161;28;20032;-81
2022/04/25 07:44:37;;;;;;;18.58;9.77;;;7.70;99.90;;;;;;5073376;28;20048;-82
2022/04/25 07:47:05;;;;;;;16.65;9.45;;;7.70;99.90;;;;;;5074373;28;20089;-82
2022/04/25 07:49:32;;;;;;;20.83;10.32;;;7.70;99.90;;;;;;5073992;28;20044;-81
2022/04/25 07:51:59;;;;;;;19.02;10.68;;;7.70;99.90;;;;;;5074036;28;20506;-81
2022/04/25 07:54:25;;;;;;;19.45;11.00;;;7.80;99.90;;;;;;5055951;28;20091;-81
2022/04/25 07:56:51;;;;;;;20.45;9.77;;;7.80;99.90;;;;;;5074132;28;20403;-83
2022/04/25 07:59:20;;;;;;;21.92;11.65;;;7.90;99.90;;;;;;5056381;28;20518;-82
2022/04/25 08:01:46;;;;;;;15.32;9.60;;;7.80;99.90;;;;;;5073990;28;20090;-83
2022/04/25 08:04:14;;;;;;;23.65;12.07;;;7.90;99.90;;;;;;5074271;28;20041;-82
2022/04/25 08:06:40;;;;;;;18.40;9.65;;;7.90;99.90;;;;;;5072978;28;20491;-82
2022/04/25 08:09:05;;;;;;;21.88;11.55;;;8.00;99.90;;;;;;5072352;28;20044;-82
2022/04/25 08:11:31;;;;;;;20.35;10.05;;;8.00;99.90;;;;;;5055899;28;20066;-81
2022/04/25 08:19:22;;;;;;;19.13;10.45;;;7.90;99.90;;;;;;5059640;28;20049;-82
2022/04/25 08:21:52;;;;;;;19.88;9.45;;;7.90;99.90;;;;;;5074644;28;20394;-82
2022/04/25 08:24:19;;;;;;;19.02;8.95;;;7.90;99.90;;;;;;5056502;28;20124;-82
2022/04/25 08:26:44;;;;;;;20.90;10.15;;;7.90;99.90;;;;;;5074975;28;20048;-82
2022/04/25 08:29:10;;;;;;;19.48;9.52;;;7.90;99.90;;;;;;5074906;28;20048;-82
2022/04/25 08:31:37;;;;;;;19.30;9.85;;;7.90;99.90;;;;;;5074829;28;20044;-80
2022/04/25 08:34:07;;;;;;;19.73;9.50;;;7.90;99.90;;;;;;5072492;28;20045;-81
2022/04/25 08:36:33;;;;;;;23.52;9.90;;;8.60;99.90;;;;;;5056309;28;20417;-82
2022/04/25 08:39:00;;;;;;;16.00;9.05;;;8.00;99.90;;;;;;5074455;28;20048;-81
2022/04/25 08:41:32;;;;;;;15.77;8.40;;;8.10;99.90;;;;;;5075051;28;20067;-82
2022/04/25 08:43:58;;;;;;;15.15;9.20;;;8.10;99.90;;;;;;5075305;28;20044;-80
2022/04/25 08:46:28;;;;;;;19.05;10.55;;;8.10;99.90;;;;;;5074960;28;20048;-81
2022/04/25 08:48:55;;;;;;;18.10;9.65;;;8.10;99.90;;;;;;5075336;28;20049;-79
2022/04/25 08:51:24;;;;;;;19.20;8.85;;;8.00;99.90;;;;;;5074995;28;20097;-81
2022/04/25 08:53:52;;;;;;;18.38;9.10;;;8.00;99.90;;;;;;5075397;28;20063;-81
2022/04/25 08:56:22;;;;;;;18.67;9.85;;;7.90;99.90;;;;;;5074956;28;20140;-80
2022/04/25 08:58:49;;;;;;;20.52;8.18;;;7.80;99.90;;;;;;5057321;28;20080;-80
2022/04/25 09:01:16;;;;;;;17.42;9.18;;;7.70;99.90;;;;;;5076454;28;20050;-81
2022/04/25 09:03:45;;;;;;;18.00;9.68;;;7.80;99.90;;;;;;5067769;28;20044;-81
2022/04/25 09:06:10;;;;;;;13.07;7.75;;;7.90;99.90;;;;;;5068167;28;20053;-80
2022/04/25 09:08:36;;;;;;;16.63;8.75;;;7.90;99.90;;;;;;5067870;28;20483;-81
2022/04/25 09:13:47;;;;;;;14.90;6.45;;;8.10;99.90;;;;;;5068005;28;20056;-80
2022/04/25 09:16:14;;;;;;;13.00;6.13;;;8.20;99.90;;;;;;5081045;28;20087;-82
2022/04/25 09:18:39;;;;;;;10.88;5.13;;;8.30;99.90;;;;;;5024831;28;20375;-82
2022/04/25 09:21:15;;;;;;;10.55;5.13;;;8.90;99.90;;;;;;5040610;28;20097;-81
2022/04/25 09:23:44;;;;;;;9.82;4.57;;;9.20;99.90;;;;;;5075270;28;20086;-82
2022/04/25 09:26:16;;;;;;;12.15;5.63;;;8.80;99.90;;;;;;5074885;28;20041;-81
2022/04/25 09:28:49;;;;;;;21.65;5.45;;;8.80;99.90;;;;;;5074673;28;20144;-82
2022/04/25 09:31:17;;;;;;;12.73;5.75;;;9.10;99.90;;;;;;5057045;28;20048;-81
2022/04/25 09:33:46;;;;;;;11.57;5.55;;;9.10;99.90;;;;;;5074321;28;20502;-82
2022/04/25 09:36:12;;;;;;;13.30;6.13;;;9.10;99.90;;;;;;5057243;28;20036;-81
2022/04/25 09:38:40;;;;;;;11.65;5.80;;;9.10;99.90;;;;;;5074696;28;20483;-81
2022/04/25 09:41:08;;;;;;;12.02;4.82;;;8.80;99.90;;;;;;5056971;28;20036;-81
2022/04/25 09:43:35;;;;;;;10.98;5.78;;;9.20;99.90;;;;;;5040486;28;20048;-82
2022/04/25 09:46:15;;;;;;;10.50;5.80;;;9.30;99.90;;;;;;5074908;28;20078;-81
2022/04/25 09:49:02;;;;;;;18.67;6.28;;;9.40;99.90;;;;;;5040522;28;20118;-80
2022/04/25 09:51:27;;;;;;;10.90;5.65;;;9.40;99.90;;;;;;5074587;28;20118;-82
2022/04/25 09:53:54;;;;;;;11.57;5.60;;;9.60;99.90;;;;;;5074924;28;20471;-81
2022/04/25 09:56:25;;;;;;;10.93;4.80;;;9.60;99.90;;;;;;5074021;28;20060;-82
2022/04/25 09:59:05;;;;;;;8.18;4.85;;;9.80;99.90;;;;;;5055466;28;20055;-80
2022/04/25 10:01:33;;;;;;;15.15;5.25;;;10.00;99.90;;;;;;5052654;28;20048;-82
2022/04/25 10:03:58;;;;;;;12.32;5.32;;;10.70;99.90;;;;;;5054777;28;20402;-83
2022/04/25 10:06:24;;;;;;;14.30;6.00;;;10.30;99.90;;;;;;5073590;28;20044;-80
2022/04/25 10:08:51;;;;;;;12.05;5.50;;;10.20;99.90;;;;;;5073121;28;20036;-81
2022/04/25 10:11:19;;;;;;;13.15;5.75;;;10.30;99.90;;;;;;5038785;28;20436;-82
2022/04/25 10:13:47;;;;;;;14.82;5.60;;;10.50;99.90;;;;;;5038984;28;20044;-81
2022/04/25 10:16:18;;;;;;;11.60;5.88;;;10.70;99.90;;;;;;5073498;28;20072;-83
2022/04/25 10:18:44;;;;;;;10.27;5.15;;;10.80;99.90;;;;;;5055569;28;20044;-82
2022/04/25 10:21:11;;;;;;;10.55;5.15;;;11.10;99.90;;;;;;5073517;28;20052;-81
2022/04/25 10:23:38;;;;;;;9.85;4.78;;;11.10;99.90;;;;;;5074036;28;20052;-82
2022/04/25 10:26:03;;;;;;;14.82;4.97;;;11.10;99.90;;;;;;5073383;28;20516;-81
2022/04/25 10:28:38;;;;;;;12.65;4.45;;;11.20;99.90;;;;;;5073464;28;20116;-82
2022/04/25 10:31:07;;;;;;;13.43;4.80;;;11.40;99.90;;;;;;5054941;28;20127;-83
2022/04/25 10:33:58;;;;;;;16.13;4.55;;;11.70;99.90;;;;;;5073657;28;20076;-82
2022/04/25 10:36:38;;;;;;;10.98;4.95;;;12.20;99.90;;;;;;5073725;28;20395;-81
2022/04/25 10:39:24;;;;;;;14.05;5.35;;;12.50;99.90;;;;;;5072922;28;20055;-81
2022/04/25 10:44:37;;;;;;;10.65;4.78;;;12.10;99.90;;;;;;5071004;28;20131;-82
2022/04/25 10:47:05;;;;;;;12.02;4.72;;;12.20;99.90;;;;;;5070778;28;20148;-83
2022/04/25 10:49:35;;;;;;;9.05;5.03;;;12.40;99.90;;;;;;5063280;28;20266;-83
2022/04/25 10:52:03;;;;;;;8.15;4.60;;;12.60;99.90;;;;;;5050342;28;20052;-81
2022/04/25 10:54:46;;;;;;;14.25;5.65;;;12.60;99.90;;;;;;5032902;28;20053;-83
2022/04/25 10:57:16;;;;;;;8.63;5.10;;;12.80;99.90;;;;;;5012703;28;20488;-81
2022/04/25 10:59:44;;;;;;;10.35;4.75;;;12.60;99.90;;;;;;5037146;28;20057;-82
2022/04/25 11:02:39;;;;;;;11.07;5.43;;;12.60;99.90;;;;;;5049156;28;20487;-82
2022/04/25 11:05:25;;;;;;;8.18;4.53;;;12.90;99.90;;;;;;5033433;28;20049;-81
2022/04/25 11:07:51;;;;;;;8.43;4.63;;;13.30;99.90;;;;;;5019653;28;20500;-82
2022/04/25 11:10:45;;;;;;;7.55;4.15;;;13.50;99.90;;;;;;5066155;28;20059;-82
2022/04/25 11:13:15;;;;;;;13.50;5.03;;;13.50;99.90;;;;;;5048845;28;20479;-83
2022/04/25 11:15:48;;;;;;;11.13;4.63;;;13.20;99.90;;;;;;5050880;28;20080;-80
2022/04/25 11:18:33;;;;;;;10.45;4.70;;;13.00;99.90;;;;;;5050658;28;20442;-83
2022/04/25 11:21:25;;;;;;;9.95;5.00;;;13.20;99.90;;;;;;5050725;28;20143;-82
2022/04/25 11:23:52;;;;;;;8.48;4.68;;;13.40;99.90;;;;;;5049743;28;20325;-83
2022/04/25 11:26:21;;;;;;;7.20;4.35;;;13.40;98.80;;;;;;5048721;28;20075;-79
2022/04/25 11:28:58;;;;;;;8.55;4.72;;;13.60;97.20;;;;;;5050094;28;20041;-82
2022/04/25 11:31:33;;;;;;;7.60;4.95;;;13.20;93.70;;;;;;5050356;28;20063;-82
2022/04/25 11:34:02;;;;;;;8.50;4.80;;;13.10;95.80;;;;;;5050618;28;20053;-82
2022/04/25 11:36:39;;;;;;;11.43;4.38;;;12.80;98.00;;;;;;5050598;28;20045;-80
2022/04/25 11:41:50;;;;;;;7.60;5.03;;;12.70;99.90;;;;;;5052217;28;20053;-82
2022/04/25 11:44:15;;;;;;;9.07;5.43;;;13.00;99.90;;;;;;5054033;28;20052;-82
2022/04/25 11:46:45;;;;;;;10.20;4.82;;;12.90;97.30;;;;;;5055288;28;20060;-82
2022/04/25 11:49:25;;;;;;;9.68;4.80;;;13.10;98.50;;;;;;5055791;28;20041;-82
2022/04/25 11:51:51;;;;;;;9.88;6.45;;;13.00;96.40;;;;;;5056141;28;20045;-83
2022/04/25 11:54:16;;;;;;;10.20;5.05;;;12.90;97.00;;;;;;5053863;28;20457;-83
2022/04/25 11:56:43;;;;;;;10.77;6.25;;;13.00;99.90;;;;;;5060933;28;20063;-82
2022/04/25 11:59:13;;;;;;;14.75;6.00;;;13.10;99.20;;;;;;5074164;28;20424;-82
2022/04/25 12:01:39;;;;;;;9.02;5.03;;;12.80;97.00;;;;;;5074597;28;20437;-81
2022/04/25 12:04:24;;;;;;;8.05;5.13;;;12.70;98.40;;;;;;5075898;28;20147;-81
2022/04/25 12:06:58;;;;;;;11.18;5.50;;;12.70;99.40;;;;;;5076338;28;20044;-82
2022/04/25 12:17:49;;;;;;;16.20;6.53;;;12.90;99.90;;;;;;5086859;28;20060;-82
2022/04/25 12:20:16;;;;;;;10.57;5.57;;;13.00;95.70;;;;;;5089704;28;20055;-82
2022/04/25 12:22:55;;;;;;;10.13;5.55;;;13.20;96.80;;;;;;5082185;28;20041;-82
2022/04/25 12:25:33;;;;;;;9.15;5.47;;;13.30;94.80;;;;;;5065069;28;20119;-82
2022/04/25 12:28:17;;;;;;;12.02;5.45;;;13.70;92.30;;;;;;5085892;28;20135;-82
2022/04/25 12:30:51;;;;;;;10.95;6.28;;;14.00;91.50;;;;;;5057141;28;20056;-82
2022/04/25 12:33:19;;;;;;;9.32;5.25;;;14.30;91.10;;;;;;5038520;28;20045;-83
2022/04/25 12:35:46;;;;;;;16.30;6.38;;;14.50;86.70;;;;;;5054772;28;20182;-82
2022/04/25 12:38:41;;;;;;;11.52;5.90;;;14.60;84.40;;;;;;5071697;28;20090;-83
2022/04/25 12:41:17;;;;;;;10.48;5.38;;;14.50;86.50;;;;;;5054510;28;20127;-81
2022/04/25 12:43:48;;;;;;;12.68;5.60;;;14.20;87.50;;;;;;5072238;28;20153;-82
2022/04/25 12:46:16;;;;;;;8.88;5.65;;;14.30;90.70;;;;;;5054781;28;20070;-81
2022/04/25 12:49:03;;;;;;;8.85;5.10;;;14.50;90.80;;;;;;5072247;28;20040;-82
2022/04/25 12:51:29;;;;;;;;;;;14.30;83.80;;;;;;5072726;28;20502;-83
2022/04/25 12:53:54;;;;;;;13.33;5.70;;;14.00;88.90;;;;;;5072050;28;19974;-82
2022/04/25 12:56:28;;;;;;;9.40;5.50;;;14.00;90.20;;;;;;5071080;28;20043;-82
2022/04/25 12:58:54;;;;;;;13.80;6.20;;;13.80;91.10;;;;;;5071703;28;20632;-83
2022/04/25 13:01:27;;;;;;;8.65;5.35;;;13.40;92.20;;;;;;5071741;28;20051;-82
2022/04/25 13:04:09;;;;;;;11.57;5.97;;;13.50;95.50;;;;;;5071651;28;20117;-83
2022/04/25 13:06:36;;;;;;;11.45;6.25;;;13.40;94.80;;;;;;5072243;28;20043;-82
2022/04/25 13:09:03;;;;;;;10.52;6.00;;;13.50;95.50;;;;;;5071957;28;20091;-82
2022/04/25 13:11:29;;;;;;;11.25;5.53;;;13.30;94.00;;;;;;5071470;28;20048;-83
2022/04/25 13:13:56;;;;;;;9.57;5.35;;;13.20;95.20;;;;;;5053672;28;20122;-83
2022/04/25 13:16:22;;;;;;;16.08;5.22;;;13.20;95.80;;;;;;5071864;28;20115;-82
2022/04/25 13:18:48;;;;;;;9.50;5.35;;;13.00;97.60;;;;;;5071270;28;20495;-83
2022/04/25 13:21:14;;;;;;;16.38;5.35;;;13.00;98.30;;;;;;5071723;28;20071;-83
2022/04/25 13:23:40;;;;;;;11.60;5.63;;;12.90;98.20;;;;;;5071920;28;20508;-83
2022/04/25 13:26:05;;;;;;;12.27;5.05;;;12.80;96.90;;;;;;5071333;28;20495;-83
2022/04/25 13:28:31;;;;;;;9.88;5.50;;;12.80;98.90;;;;;;5071396;28;20033;-82